Time;durP1;ratioP1;P1;durP2;ratioP2;P2;SDS_P1;SDS_P2;PMS_P1;PMS_P2;Temp;Humidity;BMP_temperature;BMP_pressure;BME280_temperature;BME280_humidity;BME280_pressure;Samples;Min_cycle;Max_cycle;Signal;HPM_P1;HPM_P2
2023/11/02 00:01:07;;;;;;;2.10;0.70;;;;;;;;;;5014095;28;20460;-69
2023/11/02 00:03:36;;;;;;;1.40;0.50;;;;;;;;;;5013977;28;20480;-69
2023/11/02 00:06:23;;;;;;;1.70;0.80;;;;;;;;;;5018603;28;20477;-69
2023/11/02 00:09:02;;;;;;;1.87;0.63;;;;;;;;;;5011695;28;20455;-69
2023/11/02 00:11:49;;;;;;;1.43;0.60;;;;;;;;;;5009026;28;20448;-67
2023/11/02 00:14:17;;;;;;;2.53;1.23;;;;;;;;;;5011192;28;20465;-70
2023/11/02 00:16:44;;;;;;;1.60;0.70;;;;;;;;;;5016201;28;20512;-67
2023/11/02 00:19:26;;;;;;;1.70;0.60;;;;;;;;;;5011667;28;20476;-69
2023/11/02 00:21:54;;;;;;;2.90;1.43;;;;;;;;;;5009550;28;21002;-69
2023/11/02 00:24:21;;;;;;;4.27;0.80;;;;;;;;;;5017054;28;20447;-66
2023/11/02 00:26:48;;;;;;;2.13;1.20;;;;;;;;;;5026430;28;20673;-67
2023/11/02 00:29:15;;;;;;;4.07;0.67;;;;;;;;;;5034040;28;21055;-68
2023/11/02 00:31:42;;;;;;;1.70;0.90;;;;;;;;;;5008919;28;20467;-68
2023/11/02 00:34:11;;;;;;;1.70;0.63;;;;;;;;;;5009108;28;20460;-68
2023/11/02 00:36:39;;;;;;;1.40;0.40;;;;;;;;;;5010572;28;20512;-69
2023/11/02 00:39:06;;;;;;;1.40;0.40;;;;;;;;;;5026645;28;20442;-70
2023/11/02 00:41:33;;;;;;;1.40;0.50;;;;;;;;;;5033951;28;20454;-72
2023/11/02 00:44:00;;;;;;;1.60;0.73;;;;;;;;;;5016878;28;20448;-68
2023/11/02 00:46:27;;;;;;;1.80;0.70;;;;;;;;;;5021349;28;20540;-69
2023/11/02 00:48:54;;;;;;;1.70;0.80;;;;;;;;;;5028566;28;20451;-69
2023/11/02 00:51:25;;;;;;;1.50;0.60;;;;;;;;;;5012673;28;20932;-69
2023/11/02 00:53:55;;;;;;;3.40;1.13;;;;;;;;;;5020425;28;20446;-69
2023/11/02 00:56:24;;;;;;;1.40;0.50;;;;;;;;;;5019316;28;20534;-69
2023/11/02 00:58:52;;;;;;;1.50;0.57;;;;;;;;;;5017084;28;20543;-69
2023/11/02 01:01:22;;;;;;;1.50;0.53;;;;;;;;;;5008070;28;20452;-68
2023/11/02 01:03:55;;;;;;;1.53;0.63;;;;;;;;;;5016101;28;20474;-69
2023/11/02 01:06:23;;;;;;;1.40;0.50;;;;;;;;;;5003309;28;20487;-70
2023/11/02 01:08:53;;;;;;;1.57;0.60;;;;;;;;;;5018982;28;20844;-69
2023/11/02 01:11:25;;;;;;;3.40;0.73;;;;;;;;;;5021669;28;20451;-70
2023/11/02 01:13:56;;;;;;;2.13;1.03;;;;;;;;;;5001631;28;20454;-68
2023/11/02 01:16:23;;;;;;;1.77;0.70;;;;;;;;;;5017317;28;20487;-69
2023/11/02 01:18:50;;;;;;;1.37;0.50;;;;;;;;;;5027508;28;20815;-67
2023/11/02 01:21:17;;;;;;;2.30;0.80;;;;;;;;;;5015120;28;20845;-69
2023/11/02 01:23:46;;;;;;;1.50;0.50;;;;;;;;;;5015407;28;20460;-70
2023/11/02 01:26:31;;;;;;;1.70;0.70;;;;;;;;;;5019919;28;20475;-68
2023/11/02 01:29:00;;;;;;;2.43;0.93;;;;;;;;;;5025590;28;20835;-68
2023/11/02 01:31:27;;;;;;;1.70;0.60;;;;;;;;;;5019751;28;20440;-67
2023/11/02 01:33:54;;;;;;;2.57;0.63;;;;;;;;;;5013988;28;20464;-69
2023/11/02 01:36:28;;;;;;;2.27;1.23;;;;;;;;;;5019973;28;20483;-68
2023/11/02 01:39:00;;;;;;;1.90;0.70;;;;;;;;;;5025247;28;20446;-69
2023/11/02 01:41:33;;;;;;;2.80;0.90;;;;;;;;;;5008838;28;20452;-67
2023/11/02 01:44:12;;;;;;;1.70;0.70;;;;;;;;;;5006096;28;20522;-68
2023/11/02 01:46:45;;;;;;;2.07;0.60;;;;;;;;;;5013642;28;20478;-68
2023/11/02 01:49:16;;;;;;;1.60;0.80;;;;;;;;;;5017803;28;20433;-68
2023/11/02 01:51:49;;;;;;;3.57;0.90;;;;;;;;;;5014363;28;20477;-68
2023/11/02 01:54:23;;;;;;;1.70;0.60;;;;;;;;;;5022096;28;20471;-68
2023/11/02 01:56:54;;;;;;;1.70;0.63;;;;;;;;;;5012866;28;20526;-68
2023/11/02 01:59:26;;;;;;;1.40;0.47;;;;;;;;;;5006785;28;21067;-67
2023/11/02 02:01:56;;;;;;;1.83;0.80;;;;;;;;;;5043256;28;20440;-68
2023/11/02 02:04:33;;;;;;;2.13;0.60;;;;;;;;;;5029110;28;20469;-69
2023/11/02 02:07:06;;;;;;;2.17;0.87;;;;;;;;;;5011581;28;20483;-68
2023/11/02 02:09:38;;;;;;;1.50;0.60;;;;;;;;;;5023887;28;20887;-68
2023/11/02 02:12:12;;;;;;;1.90;0.70;;;;;;;;;;5032255;28;20443;-68
2023/11/02 02:14:46;;;;;;;1.40;0.50;;;;;;;;;;5032332;28;20454;-69
2023/11/02 02:17:20;;;;;;;1.60;0.60;;;;;;;;;;5008930;28;20536;-69
2023/11/02 02:19:58;;;;;;;1.63;0.80;;;;;;;;;;5007980;28;20460;-69
2023/11/02 02:22:28;;;;;;;1.90;0.73;;;;;;;;;;5018479;28;20990;-69
2023/11/02 02:24:59;;;;;;;1.40;0.50;;;;;;;;;;5024010;28;20967;-70
2023/11/02 02:27:45;;;;;;;2.43;0.80;;;;;;;;;;4997008;28;20477;-69
2023/11/02 02:30:21;;;;;;;4.43;0.50;;;;;;;;;;5002699;28;20470;-68
2023/11/02 02:33:00;;;;;;;2.20;0.80;;;;;;;;;;5004853;28;20454;-68
2023/11/02 02:35:31;;;;;;;1.63;0.60;;;;;;;;;;5012244;28;20463;-68
2023/11/02 02:38:01;;;;;;;1.70;0.80;;;;;;;;;;5013520;28;21036;-68
2023/11/02 02:40:33;;;;;;;1.67;0.70;;;;;;;;;;5026858;28;20450;-68
2023/11/02 02:43:01;;;;;;;1.40;0.50;;;;;;;;;;5010693;28;20468;-68
2023/11/02 02:45:29;;;;;;;1.70;0.70;;;;;;;;;;5027658;28;20482;-69
2023/11/02 02:47:58;;;;;;;1.70;0.70;;;;;;;;;;5015529;28;20950;-68
2023/11/02 02:50:28;;;;;;;1.60;0.60;;;;;;;;;;5031467;28;20447;-69
2023/11/02 02:52:58;;;;;;;2.00;0.80;;;;;;;;;;4998053;28;20507;-69
2023/11/02 02:55:28;;;;;;;1.77;0.70;;;;;;;;;;4996761;28;21071;-68
2023/11/02 02:57:56;;;;;;;2.63;1.47;;;;;;;;;;5006704;28;20798;-68
2023/11/02 03:00:24;;;;;;;2.17;0.70;;;;;;;;;;5006928;28;20811;-69
2023/11/02 03:02:52;;;;;;;1.43;0.53;;;;;;;;;;5026018;28;20513;-68
2023/11/02 03:05:20;;;;;;;1.53;0.70;;;;;;;;;;5031810;28;20467;-68
2023/11/02 03:07:48;;;;;;;1.60;0.50;;;;;;;;;;5000397;28;20878;-69
2023/11/02 03:10:17;;;;;;;1.80;0.93;;;;;;;;;;5001200;28;20836;-69
2023/11/02 03:12:44;;;;;;;1.60;0.60;;;;;;;;;;5004072;28;20455;-68
2023/11/02 03:15:13;;;;;;;1.40;0.60;;;;;;;;;;5017217;28;21005;-68
2023/11/02 03:17:56;;;;;;;1.70;0.70;;;;;;;;;;5003634;28;20843;-68
2023/11/02 03:20:24;;;;;;;1.60;0.70;;;;;;;;;;5015008;28;20439;-68
2023/11/02 03:22:51;;;;;;;1.60;0.70;;;;;;;;;;5018670;28;20451;-68
2023/11/02 03:25:25;;;;;;;1.83;0.97;;;;;;;;;;5028279;28;20471;-68
2023/11/02 03:28:00;;;;;;;1.60;0.73;;;;;;;;;;5009931;28;20459;-68
2023/11/02 03:30:31;;;;;;;1.87;0.80;;;;;;;;;;4999810;28;20957;-68
2023/11/02 03:33:04;;;;;;;2.10;0.97;;;;;;;;;;4994285;28;20447;-69
2023/11/02 03:35:35;;;;;;;9.37;1.13;;;;;;;;;;5009524;28;20569;-68
2023/11/02 03:38:05;;;;;;;1.50;0.60;;;;;;;;;;5027166;28;21229;-68
2023/11/02 03:40:40;;;;;;;2.23;1.00;;;;;;;;;;5028100;28;20443;-68
2023/11/02 03:43:10;;;;;;;1.60;0.60;;;;;;;;;;5012290;28;20465;-68
2023/11/02 03:45:50;;;;;;;1.70;0.87;;;;;;;;;;5016424;28;20484;-68
2023/11/02 03:48:25;;;;;;;1.97;0.90;;;;;;;;;;5017213;28;20498;-68
2023/11/02 03:50:58;;;;;;;1.70;0.73;;;;;;;;;;5012449;28;20463;-68
2023/11/02 03:53:30;;;;;;;3.60;0.83;;;;;;;;;;5030291;28;20826;-68
2023/11/02 03:56:10;;;;;;;3.80;0.80;;;;;;;;;;5025671;28;20473;-69
2023/11/02 03:58:45;;;;;;;1.70;0.60;;;;;;;;;;5013438;28;20469;-68
2023/11/02 04:01:16;;;;;;;1.73;0.90;;;;;;;;;;5009993;28;20449;-67
2023/11/02 04:03:45;;;;;;;1.70;0.90;;;;;;;;;;5014901;28;20455;-68
2023/11/02 04:06:17;;;;;;;1.50;0.50;;;;;;;;;;5013193;28;20558;-68
2023/11/02 04:08:47;;;;;;;1.90;0.70;;;;;;;;;;5012514;28;20444;-67
2023/11/02 04:11:22;;;;;;;1.70;0.90;;;;;;;;;;5002737;28;20479;-67
2023/11/02 04:13:52;;;;;;;1.57;0.60;;;;;;;;;;5012471;28;20432;-68
2023/11/02 04:16:19;;;;;;;1.73;0.77;;;;;;;;;;5012684;28;20468;-68
2023/11/02 04:18:46;;;;;;;1.40;0.50;;;;;;;;;;5009521;28;21168;-68
2023/11/02 04:21:14;;;;;;;1.40;0.60;;;;;;;;;;5026184;28;20934;-67
2023/11/02 04:23:41;;;;;;;2.40;0.77;;;;;;;;;;5017146;28;20490;-68
2023/11/02 04:26:08;;;;;;;2.00;0.73;;;;;;;;;;5020439;28;20463;-68
2023/11/02 04:28:36;;;;;;;1.50;0.50;;;;;;;;;;5012342;28;20479;-66
2023/11/02 04:31:03;;;;;;;2.50;0.90;;;;;;;;;;5021447;28;21027;-67
2023/11/02 04:33:30;;;;;;;2.00;0.70;;;;;;;;;;5028223;28;20455;-72
2023/11/02 04:35:58;;;;;;;1.67;0.63;;;;;;;;;;5025797;28;20909;-66
2023/11/02 04:38:25;;;;;;;1.73;0.70;;;;;;;;;;5002719;28;20488;-66
2023/11/02 04:40:54;;;;;;;3.30;1.23;;;;;;;;;;5031978;28;20447;-65
2023/11/02 04:43:21;;;;;;;1.80;0.80;;;;;;;;;;5013108;28;20488;-65
2023/11/02 04:45:49;;;;;;;1.50;0.50;;;;;;;;;;5014070;28;20465;-65
2023/11/02 04:48:17;;;;;;;1.40;0.50;;;;;;;;;;5017883;28;20459;-64
2023/11/02 04:50:45;;;;;;;2.30;0.80;;;;;;;;;;5017537;28;20504;-65
2023/11/02 04:53:12;;;;;;;1.80;0.80;;;;;;;;;;5013171;28;20837;-65
2023/11/02 04:55:41;;;;;;;1.47;0.57;;;;;;;;;;5016230;28;20514;-64
2023/11/02 04:58:09;;;;;;;2.00;0.77;;;;;;;;;;5022452;28;20472;-65
2023/11/02 05:00:36;;;;;;;1.47;0.50;;;;;;;;;;5016703;28;20463;-64
2023/11/02 05:03:05;;;;;;;2.57;0.73;;;;;;;;;;5029493;28;20443;-65
2023/11/02 05:05:32;;;;;;;1.90;0.67;;;;;;;;;;5026355;28;20484;-66
2023/11/02 05:07:59;;;;;;;3.40;0.90;;;;;;;;;;5022314;28;20464;-66
2023/11/02 05:10:26;;;;;;;1.90;0.70;;;;;;;;;;5004833;28;20947;-66
2023/11/02 05:12:53;;;;;;;1.50;0.70;;;;;;;;;;5018953;28;20447;-66
2023/11/02 05:15:20;;;;;;;1.80;0.60;;;;;;;;;;5026488;28;20870;-66
2023/11/02 05:17:47;;;;;;;1.40;0.50;;;;;;;;;;5018981;28;20479;-66
2023/11/02 05:20:16;;;;;;;2.90;1.43;;;;;;;;;;5010641;28;20443;-66
2023/11/02 05:22:44;;;;;;;1.80;0.63;;;;;;;;;;5014155;28;20501;-67
2023/11/02 05:25:11;;;;;;;1.60;0.80;;;;;;;;;;4995454;28;20476;-66
2023/11/02 05:27:38;;;;;;;1.77;0.70;;;;;;;;;;5018455;28;20480;-66
2023/11/02 05:30:07;;;;;;;2.73;0.83;;;;;;;;;;5010621;28;20499;-67
2023/11/02 05:32:34;;;;;;;1.93;0.60;;;;;;;;;;5019447;28;20443;-66
2023/11/02 05:35:01;;;;;;;2.03;0.83;;;;;;;;;;5021259;28;20905;-66
2023/11/02 05:37:29;;;;;;;2.80;1.73;;;;;;;;;;5033796;28;20478;-66
2023/11/02 05:39:57;;;;;;;2.20;0.87;;;;;;;;;;5013715;28;20852;-64
2023/11/02 05:42:24;;;;;;;1.60;0.60;;;;;;;;;;5018176;28;20451;-65
2023/11/02 05:44:51;;;;;;;1.80;0.60;;;;;;;;;;5019695;28;20522;-66
2023/11/02 05:47:20;;;;;;;3.23;0.70;;;;;;;;;;5032037;28;20783;-65
2023/11/02 05:49:47;;;;;;;1.47;0.60;;;;;;;;;;5009264;28;20445;-65
2023/11/02 05:52:14;;;;;;;1.90;0.80;;;;;;;;;;5019641;28;20464;-65
2023/11/02 05:54:42;;;;;;;1.40;0.40;;;;;;;;;;5024051;28;20456;-65
2023/11/02 05:57:11;;;;;;;1.60;0.70;;;;;;;;;;5037808;28;20466;-65
2023/11/02 05:59:39;;;;;;;1.57;0.60;;;;;;;;;;5012654;28;20460;-66
2023/11/02 06:02:08;;;;;;;1.70;0.63;;;;;;;;;;5010008;28;20967;-66
2023/11/02 06:04:35;;;;;;;1.80;0.60;;;;;;;;;;5020745;28;20550;-67
2023/11/02 06:07:02;;;;;;;1.60;0.60;;;;;;;;;;5010424;28;20487;-66
2023/11/02 06:09:31;;;;;;;6.50;1.27;;;;;;;;;;5015441;28;20467;-65
2023/11/02 06:11:59;;;;;;;1.90;0.70;;;;;;;;;;5016235;28;20819;-66
2023/11/02 06:14:27;;;;;;;1.60;0.70;;;;;;;;;;5019036;28;20450;-67
2023/11/02 06:16:55;;;;;;;2.03;0.63;;;;;;;;;;5006703;28;20576;-67
2023/11/02 06:19:22;;;;;;;2.80;1.07;;;;;;;;;;5003674;28;20480;-68
2023/11/02 06:21:49;;;;;;;1.40;0.47;;;;;;;;;;5011253;28;20468;-67
2023/11/02 06:24:16;;;;;;;1.70;0.60;;;;;;;;;;5019233;28;20459;-68
2023/11/02 06:26:43;;;;;;;1.40;0.50;;;;;;;;;;5001748;28;20468;-67
2023/11/02 06:29:12;;;;;;;3.70;0.80;;;;;;;;;;4997002;28;20471;-67
2023/11/02 06:31:40;;;;;;;2.30;1.20;;;;;;;;;;5004705;28;20610;-67
2023/11/02 06:34:07;;;;;;;1.40;0.50;;;;;;;;;;5000811;28;20515;-67
2023/11/02 06:36:34;;;;;;;1.70;0.70;;;;;;;;;;4998249;28;20477;-67
2023/11/02 06:39:01;;;;;;;1.83;0.73;;;;;;;;;;5017389;28;20482;-67
2023/11/02 06:41:28;;;;;;;1.73;0.70;;;;;;;;;;5011048;28;20464;-67
2023/11/02 06:43:55;;;;;;;1.40;0.53;;;;;;;;;;5007399;28;20472;-67
2023/11/02 06:46:23;;;;;;;2.33;1.03;;;;;;;;;;4992664;28;20477;-68
2023/11/02 06:48:50;;;;;;;2.00;1.00;;;;;;;;;;5020058;28;20447;-67
2023/11/02 06:51:17;;;;;;;3.37;1.20;;;;;;;;;;5018389;28;20819;-67
2023/11/02 06:53:44;;;;;;;1.60;0.57;;;;;;;;;;5006760;28;20954;-67
2023/11/02 06:56:11;;;;;;;1.50;0.53;;;;;;;;;;4994786;28;20475;-67
2023/11/02 06:58:38;;;;;;;1.50;0.57;;;;;;;;;;5002852;28;20883;-66
2023/11/02 07:01:06;;;;;;;1.90;0.73;;;;;;;;;;4993003;28;20468;-67
2023/11/02 07:03:34;;;;;;;1.90;1.10;;;;;;;;;;5005494;28;20448;-67
2023/11/02 07:06:02;;;;;;;2.37;0.87;;;;;;;;;;5004839;28;20893;-66
2023/11/02 07:08:29;;;;;;;1.67;0.70;;;;;;;;;;5004623;28;20445;-66
2023/11/02 07:10:56;;;;;;;1.80;0.53;;;;;;;;;;4998324;28;20487;-67
2023/11/02 07:13:23;;;;;;;2.23;0.70;;;;;;;;;;5018116;28;20988;-68
2023/11/02 07:15:50;;;;;;;1.90;0.70;;;;;;;;;;5022292;28;20969;-66
2023/11/02 07:18:18;;;;;;;2.43;1.23;;;;;;;;;;5031795;28;20479;-66
2023/11/02 07:20:46;;;;;;;1.57;0.70;;;;;;;;;;5007186;28;20468;-67
2023/11/02 07:23:14;;;;;;;1.67;0.70;;;;;;;;;;5010832;28;20447;-66
2023/11/02 07:25:42;;;;;;;2.47;1.50;;;;;;;;;;5008374;28;20769;-66
2023/11/02 07:28:09;;;;;;;2.23;1.30;;;;;;;;;;5015797;28;20449;-67
2023/11/02 07:30:36;;;;;;;1.63;0.77;;;;;;;;;;4999505;28;20893;-67
2023/11/02 07:33:03;;;;;;;2.40;0.90;;;;;;;;;;5003417;28;20459;-67
2023/11/02 07:35:30;;;;;;;2.53;0.77;;;;;;;;;;5009504;28;20916;-66
2023/11/02 07:37:59;;;;;;;2.13;1.10;;;;;;;;;;5012924;28;20495;-66
2023/11/02 07:40:26;;;;;;;1.57;0.63;;;;;;;;;;5010897;28;20481;-66
2023/11/02 07:42:53;;;;;;;5.57;1.20;;;;;;;;;;5007287;28;20441;-66
2023/11/02 07:45:20;;;;;;;3.83;0.90;;;;;;;;;;5009717;28;20565;-66
2023/11/02 07:47:47;;;;;;;2.80;0.87;;;;;;;;;;5009776;28;20470;-66
2023/11/02 07:50:15;;;;;;;2.87;1.20;;;;;;;;;;5013702;28;20471;-66
2023/11/02 07:52:42;;;;;;;2.53;1.20;;;;;;;;;;5027416;28;20455;-67
2023/11/02 07:55:11;;;;;;;2.23;1.17;;;;;;;;;;5014184;28;20463;-66
2023/11/02 07:57:38;;;;;;;1.70;0.60;;;;;;;;;;5003020;28;20467;-66
2023/11/02 08:00:06;;;;;;;2.20;1.13;;;;;;;;;;5010479;28;20455;-67
2023/11/02 08:02:34;;;;;;;1.73;0.80;;;;;;;;;;5014603;28;20547;-67
2023/11/02 08:05:02;;;;;;;1.67;0.67;;;;;;;;;;5020194;28;20941;-67
2023/11/02 08:07:30;;;;;;;1.93;0.87;;;;;;;;;;5007481;28;20451;-67
2023/11/02 08:09:57;;;;;;;2.00;1.07;;;;;;;;;;5013461;28;21008;-67
2023/11/02 08:12:25;;;;;;;1.80;0.80;;;;;;;;;;5024303;28;20956;-67
2023/11/02 08:14:52;;;;;;;1.70;0.83;;;;;;;;;;4999471;28;20551;-66
2023/11/02 08:17:23;;;;;;;1.77;0.80;;;;;;;;;;5006690;28;20471;-67
2023/11/02 08:19:50;;;;;;;2.30;0.97;;;;;;;;;;5010046;28;20468;-66
2023/11/02 08:22:17;;;;;;;1.63;0.60;;;;;;;;;;5017022;28;20440;-67
2023/11/02 08:24:44;;;;;;;2.07;0.90;;;;;;;;;;5022144;28;20464;-68
2023/11/02 08:27:11;;;;;;;1.67;0.57;;;;;;;;;;5018904;28;20480;-66
2023/11/02 08:29:40;;;;;;;1.70;0.70;;;;;;;;;;5008318;28;20501;-67
2023/11/02 08:32:10;;;;;;;2.40;0.90;;;;;;;;;;5005174;28;20465;-67
2023/11/02 08:34:41;;;;;;;1.93;0.70;;;;;;;;;;5017877;28;20522;-66
2023/11/02 08:37:11;;;;;;;2.50;1.00;;;;;;;;;;5017240;28;20467;-66
2023/11/02 08:39:38;;;;;;;2.30;0.87;;;;;;;;;;5010888;28;20475;-67
2023/11/02 08:42:05;;;;;;;2.47;1.23;;;;;;;;;;5015740;28;20509;-66
2023/11/02 08:44:33;;;;;;;1.80;0.80;;;;;;;;;;5018893;28;20448;-66
2023/11/02 08:47:02;;;;;;;1.77;0.90;;;;;;;;;;5024456;28;20471;-66
2023/11/02 08:49:29;;;;;;;3.90;0.97;;;;;;;;;;5014777;28;20454;-66
2023/11/02 08:51:56;;;;;;;1.70;0.70;;;;;;;;;;5008135;28;20447;-65
2023/11/02 08:54:23;;;;;;;2.67;1.43;;;;;;;;;;5001383;28;20437;-66
2023/11/02 08:56:50;;;;;;;3.17;0.70;;;;;;;;;;4999748;28;20828;-66
2023/11/02 08:59:17;;;;;;;2.00;0.93;;;;;;;;;;5001276;28;20480;-66
2023/11/02 09:01:44;;;;;;;1.67;0.67;;;;;;;;;;5004164;28;20471;-66
2023/11/02 09:04:13;;;;;;;1.90;1.00;;;;;;;;;;5001807;28;20493;-67
2023/11/02 09:06:40;;;;;;;1.90;0.93;;;;;;;;;;5012999;28;20471;-66
2023/11/02 09:09:07;;;;;;;3.10;1.20;;;;;;;;;;5033504;28;20438;-67
2023/11/02 09:11:34;;;;;;;1.80;0.83;;;;;;;;;;5022437;28;20983;-65
2023/11/02 09:14:01;;;;;;;3.70;1.37;;;;;;;;;;5028235;28;20448;-67
2023/11/02 09:16:28;;;;;;;2.90;0.90;;;;;;;;;;5016498;28;20467;-67
2023/11/02 09:18:58;;;;;;;2.37;0.97;;;;;;;;;;5007326;28;20863;-67
2023/11/02 09:21:27;;;;;;;2.87;0.87;;;;;;;;;;5005127;28;20542;-67
2023/11/02 09:23:54;;;;;;;1.90;0.90;;;;;;;;;;5016159;28;20450;-66
2023/11/02 09:26:21;;;;;;;2.47;0.90;;;;;;;;;;5015419;28;20498;-67
2023/11/02 09:28:49;;;;;;;1.97;0.77;;;;;;;;;;5033704;28;20439;-66
2023/11/02 09:31:17;;;;;;;2.23;0.83;;;;;;;;;;5021010;28;20533;-66
2023/11/02 09:33:44;;;;;;;4.20;2.23;;;;;;;;;;5018468;28;20521;-67
2023/11/02 09:36:11;;;;;;;2.30;0.80;;;;;;;;;;4999384;28;20924;-67
2023/11/02 09:38:40;;;;;;;1.80;0.80;;;;;;;;;;5006526;28;20479;-67
2023/11/02 09:41:07;;;;;;;2.00;0.90;;;;;;;;;;5005599;28;20492;-67
2023/11/02 09:43:35;;;;;;;3.30;1.53;;;;;;;;;;5002046;28;20506;-66
2023/11/02 09:46:02;;;;;;;1.90;0.87;;;;;;;;;;5000575;28;20563;-66
2023/11/02 09:48:29;;;;;;;2.90;1.00;;;;;;;;;;5012333;28;20444;-67
2023/11/02 09:50:58;;;;;;;2.80;1.00;;;;;;;;;;5008502;28;20466;-67
2023/11/02 09:53:25;;;;;;;1.80;0.80;;;;;;;;;;5003696;28;20471;-67
2023/11/02 09:55:54;;;;;;;3.13;1.33;;;;;;;;;;4994032;28;21025;-67
2023/11/02 09:58:22;;;;;;;3.43;1.40;;;;;;;;;;5000274;28;20455;-68
2023/11/02 10:00:49;;;;;;;2.13;0.90;;;;;;;;;;4996717;28;20461;-68
2023/11/02 10:03:17;;;;;;;2.97;1.27;;;;;;;;;;5004290;28;20466;-68
2023/11/02 10:05:46;;;;;;;2.00;1.10;;;;;;;;;;5002989;28;20473;-67
2023/11/02 10:08:13;;;;;;;2.50;1.10;;;;;;;;;;5012343;28;20445;-67
2023/11/02 10:10:42;;;;;;;1.73;0.70;;;;;;;;;;5002790;28;20448;-67
2023/11/02 10:13:12;;;;;;;2.03;1.00;;;;;;;;;;5010284;28;20467;-67
2023/11/02 10:15:39;;;;;;;1.80;0.60;;;;;;;;;;5002067;28;20793;-67
2023/11/02 10:18:13;;;;;;;1.70;0.60;;;;;;;;;;5017709;28;20878;-67
2023/11/02 10:20:40;;;;;;;1.90;0.77;;;;;;;;;;5004024;28;21335;-68
2023/11/02 10:23:12;;;;;;;2.53;0.70;;;;;;;;;;5010798;28;20460;-68
2023/11/02 10:25:40;;;;;;;1.57;0.43;;;;;;;;;;5023286;28;21252;-67
2023/11/02 10:28:07;;;;;;;1.87;0.53;;;;;;;;;;5014941;28;20543;-67
2023/11/02 10:30:36;;;;;;;1.77;0.60;;;;;;;;;;5014088;28;20565;-69
2023/11/02 10:33:04;;;;;;;1.50;0.50;;;;;;;;;;5014915;28;20454;-68
2023/11/02 10:35:31;;;;;;;1.80;0.73;;;;;;;;;;5001536;28;20495;-67
2023/11/02 10:37:58;;;;;;;1.50;0.40;;;;;;;;;;5001257;28;20511;-67
2023/11/02 10:40:25;;;;;;;1.73;0.80;;;;;;;;;;5006576;28;20506;-67
2023/11/02 10:42:56;;;;;;;1.83;0.60;;;;;;;;;;5011783;28;21195;-68
2023/11/02 10:45:23;;;;;;;1.60;0.53;;;;;;;;;;4991219;28;20489;-68
2023/11/02 10:47:53;;;;;;;1.70;0.60;;;;;;;;;;5002916;28;20538;-67
2023/11/02 10:50:24;;;;;;;2.07;0.57;;;;;;;;;;5005954;28;20439;-67
2023/11/02 10:52:56;;;;;;;2.00;0.73;;;;;;;;;;5008757;28;20456;-67
2023/11/02 10:55:23;;;;;;;1.47;0.43;;;;;;;;;;5005464;28;20476;-67
2023/11/02 10:57:51;;;;;;;1.70;0.70;;;;;;;;;;5009638;28;20468;-66
2023/11/02 11:00:18;;;;;;;2.33;0.53;;;;;;;;;;5024042;28;20484;-67
2023/11/02 11:02:46;;;;;;;2.17;0.60;;;;;;;;;;5001449;28;20444;-66
2023/11/02 11:05:15;;;;;;;2.17;0.50;;;;;;;;;;5012873;28;20492;-65
2023/11/02 11:07:44;;;;;;;1.80;0.50;;;;;;;;;;5026849;28;20451;-65
2023/11/02 11:10:12;;;;;;;1.70;0.80;;;;;;;;;;5016107;28;20444;-66
2023/11/02 11:12:40;;;;;;;1.60;0.50;;;;;;;;;;5000108;28;20498;-65
2023/11/02 11:15:10;;;;;;;1.70;0.50;;;;;;;;;;5007373;28;20542;-65
2023/11/02 11:17:38;;;;;;;1.60;0.50;;;;;;;;;;5011410;28;20440;-66
2023/11/02 11:20:06;;;;;;;1.60;0.53;;;;;;;;;;5007757;28;20472;-65
2023/11/02 11:22:35;;;;;;;1.50;0.40;;;;;;;;;;5003065;28;20535;-65
2023/11/02 11:25:04;;;;;;;1.47;0.40;;;;;;;;;;5020023;28;20469;-65
2023/11/02 11:27:32;;;;;;;1.47;0.50;;;;;;;;;;5001161;28;20461;-66
2023/11/02 11:30:02;;;;;;;2.40;0.70;;;;;;;;;;5011804;28;20999;-67
2023/11/02 11:32:32;;;;;;;1.97;0.63;;;;;;;;;;5023064;28;20534;-66
2023/11/02 11:35:10;;;;;;;1.40;0.40;;;;;;;;;;5007046;28;20460;-67
2023/11/02 11:37:40;;;;;;;1.53;0.50;;;;;;;;;;4998411;28;20829;-65
2023/11/02 11:40:10;;;;;;;2.10;0.70;;;;;;;;;;5004116;28;20475;-65
2023/11/02 11:42:55;;;;;;;2.03;0.80;;;;;;;;;;5063993;23;20491;-63
2023/11/02 11:45:30;;;;;;;1.50;0.40;;;;;;;;;;5022138;28;21171;-62
2023/11/02 11:47:57;;;;;;;1.60;0.60;;;;;;;;;;5028557;28;20439;-63
2023/11/02 11:50:35;;;;;;;1.60;0.50;;;;;;;;;;5024827;28;21080;-63
2023/11/02 11:53:24;;;;;;;1.77;0.57;;;;;;;;;;5022434;28;20448;-62
2023/11/02 11:55:53;;;;;;;1.60;0.60;;;;;;;;;;5028212;28;20494;-62
2023/11/02 11:58:41;;;;;;;1.50;0.50;;;;;;;;;;5032387;28;20460;-62
2023/11/02 12:01:17;;;;;;;1.80;0.57;;;;;;;;;;5032885;28;20489;-63
2023/11/02 12:03:45;;;;;;;1.80;0.60;;;;;;;;;;5030504;28;20542;-63
2023/11/02 12:06:13;;;;;;;1.60;0.50;;;;;;;;;;5023380;28;20471;-63
2023/11/02 12:08:43;;;;;;;1.60;0.60;;;;;;;;;;5028604;28;20510;-62
2023/11/02 12:11:13;;;;;;;2.20;0.80;;;;;;;;;;5015101;28;20464;-61
2023/11/02 12:13:45;;;;;;;1.80;0.50;;;;;;;;;;5027605;28;20550;-62
2023/11/02 12:16:12;;;;;;;1.70;0.60;;;;;;;;;;5018474;28;20464;-62
2023/11/02 12:18:39;;;;;;;1.50;0.50;;;;;;;;;;5018334;28;20444;-63
2023/11/02 12:21:11;;;;;;;1.80;0.60;;;;;;;;;;5013157;28;20508;-62
2023/11/02 12:23:39;;;;;;;1.60;0.63;;;;;;;;;;5024414;28;20447;-62
2023/11/02 12:26:07;;;;;;;1.80;0.60;;;;;;;;;;5021593;28;20496;-62
2023/11/02 12:28:45;;;;;;;1.80;0.57;;;;;;;;;;5031840;28;20450;-62
2023/11/02 12:31:12;;;;;;;3.27;1.10;;;;;;;;;;5027240;28;20459;-64
2023/11/02 12:33:40;;;;;;;2.90;0.60;;;;;;;;;;5021845;28;20475;-63
2023/11/02 12:36:07;;;;;;;2.00;0.97;;;;;;;;;;5025084;28;20479;-66
2023/11/02 12:38:36;;;;;;;1.50;0.53;;;;;;;;;;5025443;28;20470;-66
2023/11/02 12:41:04;;;;;;;2.17;0.53;;;;;;;;;;5026135;28;20927;-66
2023/11/02 12:43:33;;;;;;;1.97;0.80;;;;;;;;;;5019971;28;20543;-66
2023/11/02 12:46:06;;;;;;;1.87;0.70;;;;;;;;;;5016858;28;20472;-66
2023/11/02 12:48:36;;;;;;;1.40;0.43;;;;;;;;;;5022081;28;20514;-65
2023/11/02 12:51:14;;;;;;;2.07;0.60;;;;;;;;;;5018663;28;20482;-66
2023/11/02 12:53:42;;;;;;;1.63;0.63;;;;;;;;;;5029752;28;20448;-66
2023/11/02 12:56:09;;;;;;;1.40;0.40;;;;;;;;;;5017683;28;20480;-66
2023/11/02 12:58:36;;;;;;;1.60;0.60;;;;;;;;;;5021748;28;20516;-66
2023/11/02 13:01:05;;;;;;;1.80;0.80;;;;;;;;;;5020385;28;20563;-67
2023/11/02 13:03:32;;;;;;;1.60;0.60;;;;;;;;;;5021855;28;20474;-66
2023/11/02 13:05:59;;;;;;;2.27;0.80;;;;;;;;;;5019938;28;20528;-66
2023/11/02 13:08:26;;;;;;;1.50;0.60;;;;;;;;;;5029248;28;20465;-66
2023/11/02 13:10:53;;;;;;;1.67;0.67;;;;;;;;;;5026456;28;20431;-66
2023/11/02 13:13:21;;;;;;;1.50;0.60;;;;;;;;;;5023201;28;20463;-66
2023/11/02 13:15:48;;;;;;;1.47;0.47;;;;;;;;;;5019082;28;20483;-66
2023/11/02 13:18:16;;;;;;;1.80;0.60;;;;;;;;;;5025796;28;20463;-66
2023/11/02 13:20:47;;;;;;;1.50;0.60;;;;;;;;;;5022827;28;20519;-66
2023/11/02 13:23:15;;;;;;;1.97;0.90;;;;;;;;;;5025949;28;20985;-66
2023/11/02 13:25:42;;;;;;;3.47;1.20;;;;;;;;;;5019727;28;20486;-65
2023/11/02 13:28:11;;;;;;;2.33;0.57;;;;;;;;;;5019755;28;20448;-66
2023/11/02 13:30:41;;;;;;;1.80;0.70;;;;;;;;;;5016620;28;20460;-66
2023/11/02 13:33:08;;;;;;;1.80;0.50;;;;;;;;;;5023881;28;20509;-66
2023/11/02 13:35:37;;;;;;;2.87;0.80;;;;;;;;;;5018194;28;20479;-66
2023/11/02 13:38:04;;;;;;;10.80;4.17;;;;;;;;;;5028831;28;20462;-65
2023/11/02 13:40:31;;;;;;;2.47;0.97;;;;;;;;;;5017050;28;20480;-66
2023/11/02 13:43:00;;;;;;;2.00;0.70;;;;;;;;;;5026508;28;20849;-66
2023/11/02 13:45:29;;;;;;;1.70;0.60;;;;;;;;;;5019902;28;20480;-66
2023/11/02 13:47:56;;;;;;;1.80;0.60;;;;;;;;;;5025428;28;20451;-66
2023/11/02 13:50:23;;;;;;;1.47;0.50;;;;;;;;;;5028124;28;20459;-66
2023/11/02 13:52:51;;;;;;;1.70;0.67;;;;;;;;;;5024697;28;20473;-66
2023/11/02 13:55:20;;;;;;;2.63;0.80;;;;;;;;;;5022816;28;20486;-66
2023/11/02 13:57:47;;;;;;;1.50;0.60;;;;;;;;;;5016282;28;20941;-63
2023/11/02 14:00:15;;;;;;;1.90;0.77;;;;;;;;;;5031692;28;20757;-62
2023/11/02 14:02:42;;;;;;;3.83;0.67;;;;;;;;;;5019965;28;20456;-62
2023/11/02 14:05:10;;;;;;;2.30;0.70;;;;;;;;;;5022920;28;20550;-62
2023/11/02 14:07:37;;;;;;;1.67;0.60;;;;;;;;;;5017010;28;20486;-63
2023/11/02 14:10:07;;;;;;;2.97;1.13;;;;;;;;;;5030071;28;20439;-62
2023/11/02 14:12:34;;;;;;;2.33;0.67;;;;;;;;;;5023491;28;20448;-62
2023/11/02 14:15:01;;;;;;;2.67;1.23;;;;;;;;;;5030192;28;20469;-63
2023/11/02 14:17:29;;;;;;;2.67;0.50;;;;;;;;;;5018893;28;21143;-62
2023/11/02 14:19:56;;;;;;;2.37;1.23;;;;;;;;;;5024199;28;20535;-62
2023/11/02 14:22:23;;;;;;;1.50;0.50;;;;;;;;;;5016629;28;20440;-62
2023/11/02 14:24:52;;;;;;;1.50;0.60;;;;;;;;;;5024605;28;20475;-62
2023/11/02 14:27:22;;;;;;;4.13;1.63;;;;;;;;;;5022473;28;20547;-62
2023/11/02 14:29:51;;;;;;;2.67;1.30;;;;;;;;;;5035320;28;20451;-62
2023/11/02 14:32:18;;;;;;;2.53;0.63;;;;;;;;;;5017580;28;20543;-63
2023/11/02 14:34:45;;;;;;;2.33;0.87;;;;;;;;;;5013731;28;20518;-61
2023/11/02 14:37:14;;;;;;;1.50;0.67;;;;;;;;;;5013280;28;20515;-62
2023/11/02 14:39:42;;;;;;;4.27;1.80;;;;;;;;;;5027507;28;20459;-62
2023/11/02 14:42:09;;;;;;;2.43;0.97;;;;;;;;;;5018534;28;20483;-62
2023/11/02 14:44:38;;;;;;;3.77;0.80;;;;;;;;;;5025395;28;20958;-62
2023/11/02 14:47:05;;;;;;;2.17;0.90;;;;;;;;;;5032043;28;20459;-60
2023/11/02 14:49:32;;;;;;;1.40;0.50;;;;;;;;;;5017950;28;21033;-63
2023/11/02 14:52:06;;;;;;;2.17;0.50;;;;;;;;;;5018260;28;20933;-63
2023/11/02 14:54:33;;;;;;;3.13;0.90;;;;;;;;;;5014320;28;20993;-63